createdAt,value
2023-03-19T00:00:02.056Z,11.43
2023-03-19T00:02:32.837Z,11.45
2023-03-19T00:05:03.517Z,11.42
2023-03-19T00:07:34.108Z,11.28
2023-03-19T00:10:07.724Z,11.35
2023-03-19T00:12:38.517Z,11.28
2023-03-19T00:15:14.781Z,11.33
2023-03-19T00:17:45.808Z,11.19
2023-03-19T00:20:18.438Z,11.32
2023-03-19T00:22:49.087Z,11.17
2023-03-19T00:25:22.192Z,11.32
2023-03-19T00:27:54.410Z,11.30
2023-03-19T00:30:25.700Z,11.22
2023-03-19T00:32:56.477Z,11.21
2023-03-19T00:35:27.155Z,11.22
2023-03-19T00:37:58.093Z,11.16
2023-03-19T00:40:31.476Z,11.20
2023-03-19T00:43:02.176Z,11.20
2023-03-19T00:45:33.272Z,11.17
2023-03-19T00:48:03.898Z,11.14
2023-03-19T00:50:34.549Z,11.11
2023-03-19T00:53:05.119Z,11.07
2023-03-19T00:55:38.472Z,11.00
2023-03-19T00:58:10.325Z,10.92
2023-03-19T01:00:42.142Z,10.83
2023-03-19T01:03:13.389Z,10.65
2023-03-19T01:05:44.169Z,10.80
2023-03-19T01:08:15.406Z,10.79
2023-03-19T01:10:50.081Z,10.72
2023-03-19T01:13:20.765Z,10.53
2023-03-19T01:15:56.187Z,10.65
2023-03-19T01:18:27.201Z,10.60
2023-03-19T01:20:58.337Z,10.51
2023-03-19T01:23:29.819Z,10.54
2023-03-19T01:26:03.161Z,10.46
2023-03-19T01:28:34.510Z,10.42
2023-03-19T01:31:09.002Z,10.39
2023-03-19T01:33:59.783Z,10.37
2023-03-19T01:36:37.861Z,10.32
2023-03-19T01:39:11.801Z,10.23
2023-03-19T01:41:45.738Z,10.31
2023-03-19T01:44:38.492Z,10.29
2023-03-19T01:47:34.102Z,10.31
2023-03-19T01:50:32.021Z,10.32
2023-03-19T01:53:22.695Z,10.25
2023-03-19T01:56:00.011Z,10.38
2023-03-19T01:58:47.114Z,10.35
2023-03-19T02:01:37.773Z,10.34
2023-03-19T02:04:09.093Z,10.33
2023-03-19T02:06:42.991Z,10.28
2023-03-19T02:09:14.234Z,10.25
2023-03-19T02:11:45.210Z,10.21
2023-03-19T02:14:18.338Z,10.18
2023-03-19T02:16:49.203Z,10.15
2023-03-19T02:19:25.245Z,10.12
2023-03-19T02:21:56.729Z,10.03
2023-03-19T02:24:32.956Z,10.06
2023-03-19T02:27:11.857Z,10.11
2023-03-19T02:29:48.375Z,10.13
2023-03-19T02:32:20.048Z,10.13
2023-03-19T02:34:50.999Z,10.12
2023-03-19T02:37:25.514Z,10.07
2023-03-19T02:40:01.747Z,10.06
2023-03-19T02:42:34.829Z,10.04
2023-03-19T02:45:06.029Z,9.98
2023-03-19T02:47:36.541Z,9.78
2023-03-19T02:50:07.964Z,9.99
2023-03-19T02:52:38.453Z,9.97
2023-03-19T02:55:10.226Z,9.91
2023-03-19T02:57:43.349Z,9.92
2023-03-19T03:00:17.328Z,9.94
2023-03-19T03:02:47.978Z,9.97
2023-03-19T03:05:18.780Z,10.01
2023-03-19T03:07:50.699Z,9.95
2023-03-19T03:10:21.649Z,10.01
2023-03-19T03:12:55.036Z,10.02
2023-03-19T03:15:25.687Z,9.99
2023-03-19T03:17:57.022Z,9.96
2023-03-19T03:20:27.865Z,9.97
2023-03-19T03:22:58.719Z,9.96
2023-03-19T03:25:29.167Z,9.95
2023-03-19T03:28:02.746Z,9.92
2023-03-19T03:30:33.705Z,9.91
2023-03-19T03:33:04.617Z,9.93
2023-03-19T03:35:35.339Z,9.92
2023-03-19T03:38:06.788Z,9.58
2023-03-19T03:40:37.679Z,9.60
2023-03-19T03:43:11.182Z,9.92
2023-03-19T03:45:41.940Z,9.57
2023-03-19T03:48:12.966Z,9.91
2023-03-19T03:50:44.080Z,9.89
2023-03-19T03:53:18.960Z,9.87
2023-03-19T03:55:49.835Z,9.82
2023-03-19T03:58:27.133Z,9.88
2023-03-19T04:00:58.020Z,9.88
2023-03-19T04:03:28.875Z,9.86
2023-03-19T04:05:59.450Z,9.84
2023-03-19T04:08:30.381Z,9.80
2023-03-19T04:11:01.196Z,9.79
2023-03-19T04:13:36.900Z,9.47
2023-03-19T04:16:11.146Z,9.72
2023-03-19T04:18:41.724Z,9.73
2023-03-19T04:21:12.552Z,9.73
2023-03-19T04:23:43.292Z,9.71
2023-03-19T04:26:14.042Z,9.73
2023-03-19T04:28:47.451Z,9.74
2023-03-19T04:31:18.325Z,9.75
2023-03-19T04:33:49.488Z,9.75
2023-03-19T04:36:20.438Z,9.75
2023-03-19T04:38:51.627Z,9.76
2023-03-19T04:41:23.301Z,9.72
2023-03-19T04:44:15.421Z,9.70
2023-03-19T04:46:47.334Z,9.65
2023-03-19T04:49:20.942Z,9.42
2023-03-19T04:51:52.446Z,9.68
2023-03-19T04:54:23.667Z,9.76
2023-03-19T04:56:54.781Z,9.70
2023-03-19T04:59:30.670Z,9.84
2023-03-19T05:02:01.793Z,9.86
2023-03-19T05:04:33.042Z,9.90
2023-03-19T05:07:09.632Z,9.91
2023-03-19T05:09:42.199Z,9.94
2023-03-19T05:12:14.222Z,9.96
2023-03-19T05:14:52.353Z,10.01
2023-03-19T05:17:33.579Z,10.07
2023-03-19T05:20:25.382Z,10.12
2023-03-19T05:23:02.916Z,10.20
2023-03-19T05:25:41.932Z,10.23
2023-03-19T05:28:15.067Z,10.28
2023-03-19T05:30:49.341Z,10.30
2023-03-19T05:33:40.496Z,10.33
2023-03-19T05:36:12.718Z,10.41
2023-03-19T05:38:53.447Z,10.37
2023-03-19T05:41:30.238Z,10.22
2023-03-19T05:44:05.646Z,10.49
2023-03-19T05:47:13.105Z,10.56
2023-03-19T05:49:50.104Z,10.64
2023-03-19T05:52:21.425Z,10.70
2023-03-19T05:54:53.107Z,10.74
2023-03-19T05:57:35.878Z,10.85
2023-03-19T06:00:28.676Z,10.91
2023-03-19T06:03:01.983Z,10.97
2023-03-19T06:05:42.710Z,11.03
2023-03-19T06:08:28.856Z,11.05
2023-03-19T06:11:05.209Z,11.13
2023-03-19T06:13:37.549Z,11.19
2023-03-19T06:16:11.743Z,11.23
2023-03-19T06:18:48.544Z,11.29
2023-03-19T06:21:20.941Z,11.35
2023-03-19T06:23:51.753Z,11.40
2023-03-19T06:26:28.579Z,11.43
2023-03-19T06:29:01.798Z,11.43
2023-03-19T06:31:32.412Z,11.46
2023-03-19T06:34:15.849Z,11.46
2023-03-19T06:36:47.039Z,11.45
2023-03-19T06:39:20.177Z,11.44
2023-03-19T06:41:50.716Z,11.46
2023-03-19T06:44:25.265Z,11.47
2023-03-19T06:46:56.088Z,11.49
2023-03-19T06:49:30.042Z,11.53
2023-03-19T06:52:00.699Z,11.55
2023-03-19T06:54:31.386Z,11.60
2023-03-19T06:57:02.113Z,11.72
2023-03-19T06:59:32.723Z,11.81
2023-03-19T07:02:03.326Z,11.85
2023-03-19T07:04:36.620Z,11.91
2023-03-19T07:07:07.278Z,12.03
2023-03-19T07:09:37.720Z,12.05
2023-03-19T07:12:08.872Z,12.03
2023-03-19T07:14:39.442Z,12.06
2023-03-19T07:17:10.695Z,12.02
2023-03-19T07:19:44.084Z,11.98
2023-03-19T07:22:15.002Z,11.98
2023-03-19T07:24:45.821Z,11.96
2023-03-19T07:27:16.596Z,12.04
2023-03-19T07:29:47.152Z,11.97
2023-03-19T07:32:18.002Z,12.14
2023-03-19T07:34:51.898Z,12.15
2023-03-19T07:37:22.682Z,12.13
2023-03-19T07:39:53.804Z,12.12
2023-03-19T07:42:24.821Z,12.12
2023-03-19T07:44:55.532Z,11.99
2023-03-19T07:47:29.240Z,12.05
2023-03-19T07:50:02.764Z,12.27
2023-03-19T07:52:33.210Z,12.33
2023-03-19T07:55:04.027Z,12.40
2023-03-19T07:57:34.536Z,12.47
2023-03-19T08:00:05.324Z,12.49
2023-03-19T08:02:44.165Z,12.50
2023-03-19T08:05:17.686Z,12.51
2023-03-19T08:07:49.562Z,12.49
2023-03-19T08:10:20.511Z,12.47
2023-03-19T08:12:51.084Z,12.68
2023-03-19T08:15:21.768Z,12.89
2023-03-19T08:17:52.382Z,13.05
2023-03-19T08:20:25.885Z,13.18
2023-03-19T08:22:56.537Z,13.30
2023-03-19T08:25:27.672Z,13.38
2023-03-19T08:27:58.200Z,13.46
2023-03-19T08:30:28.984Z,13.56
2023-03-19T08:33:00.158Z,13.57
2023-03-19T08:35:33.684Z,13.54
2023-03-19T08:38:04.214Z,13.51
2023-03-19T08:40:35.052Z,13.46
2023-03-19T08:43:06.833Z,13.33
2023-03-19T08:45:37.336Z,13.23
2023-03-19T08:48:08.371Z,13.22
2023-03-19T08:50:41.904Z,13.25
2023-03-19T08:53:12.321Z,13.09
2023-03-19T08:55:44.056Z,13.43
2023-03-19T08:58:14.693Z,13.51
2023-03-19T09:00:45.080Z,13.52
2023-03-19T09:03:15.836Z,13.55
2023-03-19T09:05:49.733Z,13.59
2023-03-19T09:08:20.502Z,13.62
2023-03-19T09:10:51.595Z,13.71
2023-03-19T09:13:22.261Z,13.89
2023-03-19T09:15:53.511Z,14.16
2023-03-19T09:18:24.912Z,14.32
2023-03-19T09:20:58.284Z,14.68
2023-03-19T09:23:29.113Z,15.04
2023-03-19T09:25:59.741Z,15.14
2023-03-19T09:28:30.155Z,14.83
2023-03-19T09:31:07.061Z,14.54
2023-03-19T09:33:37.614Z,14.71
2023-03-19T09:36:11.585Z,15.05
2023-03-19T09:38:42.168Z,15.37
2023-03-19T09:41:20.968Z,15.64
2023-03-19T09:44:03.164Z,15.73
2023-03-19T09:46:40.638Z,15.72
2023-03-19T09:49:23.987Z,15.84
2023-03-19T09:51:59.846Z,15.72
2023-03-19T09:54:34.078Z,15.82
2023-03-19T09:57:04.761Z,16.18
2023-03-19T09:59:36.082Z,16.39
2023-03-19T10:02:31.928Z,16.46
2023-03-19T10:05:13.438Z,16.53
2023-03-19T10:08:11.379Z,16.50
2023-03-19T10:10:51.891Z,16.30
2023-03-19T10:13:33.313Z,16.21
2023-03-19T10:16:05.787Z,16.24
2023-03-19T10:18:39.688Z,16.16
2023-03-19T10:21:18.001Z,16.04
2023-03-19T10:23:56.220Z,16.16
2023-03-19T10:26:34.601Z,16.27
2023-03-19T10:29:11.245Z,16.37
2023-03-19T10:31:47.249Z,16.43
2023-03-19T10:34:33.087Z,16.45
2023-03-19T10:37:05.959Z,16.43
2023-03-19T10:39:42.542Z,16.35
2023-03-19T10:42:34.810Z,16.29
2023-03-19T10:45:13.131Z,16.20
2023-03-19T10:47:46.241Z,15.96
2023-03-19T10:50:22.091Z,16.18
2023-03-19T10:53:08.648Z,16.12
2023-03-19T10:55:51.206Z,16.22
2023-03-19T10:58:29.041Z,16.25
2023-03-19T11:01:02.399Z,16.34
2023-03-19T11:03:35.310Z,16.37
2023-03-19T11:06:20.096Z,16.50
2023-03-19T11:08:58.119Z,16.68
2023-03-19T11:11:48.538Z,16.83
2023-03-19T11:14:23.685Z,16.91
2023-03-19T11:17:03.448Z,16.91
2023-03-19T11:19:37.190Z,16.83
2023-03-19T11:22:21.148Z,17.06
2023-03-19T11:24:54.680Z,17.29
2023-03-19T11:27:36.077Z,17.22
2023-03-19T11:30:16.701Z,17.21
2023-03-19T11:33:09.162Z,17.20
2023-03-19T11:35:44.950Z,17.17
2023-03-19T11:38:22.245Z,17.35
2023-03-19T11:41:02.231Z,17.28
2023-03-19T11:43:49.915Z,17.26
2023-03-19T11:46:39.124Z,17.26
2023-03-19T11:49:34.746Z,17.32
2023-03-19T11:52:15.859Z,17.31
2023-03-19T11:54:55.454Z,17.37
2023-03-19T11:57:35.582Z,17.57
2023-03-19T12:00:25.994Z,17.78
2023-03-19T12:03:11.768Z,17.81
2023-03-19T12:05:52.807Z,17.92
2023-03-19T12:08:34.810Z,18.00
2023-03-19T12:11:19.370Z,18.06
2023-03-19T12:14:05.061Z,18.08
2023-03-19T12:16:55.532Z,17.94
2023-03-19T12:19:46.159Z,17.80
2023-03-19T12:22:27.379Z,17.69
2023-03-19T12:25:19.449Z,17.74
2023-03-19T12:27:57.421Z,17.67
2023-03-19T12:30:37.189Z,17.78
2023-03-19T12:33:27.331Z,17.72
2023-03-19T12:36:02.174Z,17.77
2023-03-19T12:38:39.348Z,17.96
2023-03-19T12:41:14.455Z,17.94
2023-03-19T12:43:52.241Z,17.90
2023-03-19T12:46:30.078Z,17.83
2023-03-19T12:49:09.279Z,17.74
2023-03-19T12:51:43.332Z,17.61
2023-03-19T12:54:17.666Z,17.38
2023-03-19T12:56:56.007Z,17.42
2023-03-19T12:59:35.705Z,17.28
2023-03-19T13:02:19.285Z,17.11
2023-03-19T13:04:58.157Z,16.97
2023-03-19T13:07:34.359Z,16.91
2023-03-19T13:10:10.004Z,16.62
2023-03-19T13:12:41.994Z,16.71
2023-03-19T13:15:17.367Z,16.61
2023-03-19T13:17:59.186Z,16.51
2023-03-19T13:20:48.504Z,16.15
2023-03-19T13:23:25.103Z,16.37
2023-03-19T13:25:59.631Z,16.20
2023-03-19T13:28:33.632Z,16.29
2023-03-19T13:31:07.162Z,16.21
2023-03-19T13:33:40.300Z,16.15
2023-03-19T13:36:17.445Z,16.11
2023-03-19T13:38:51.788Z,16.13
2023-03-19T13:41:52.533Z,16.28
2023-03-19T13:44:38.984Z,16.50
2023-03-19T13:47:42.526Z,16.63
2023-03-19T13:50:52.837Z,16.73
2023-03-19T13:53:37.960Z,16.67
2023-03-19T13:56:28.633Z,16.64
2023-03-19T13:59:27.982Z,16.62
2023-03-19T14:01:58.696Z,16.49
2023-03-19T14:04:31.375Z,16.53
2023-03-19T14:07:14.220Z,16.62
2023-03-19T14:09:49.616Z,16.69
2023-03-19T14:12:34.932Z,16.87
2023-03-19T14:15:18.137Z,16.83
2023-03-19T14:17:58.563Z,16.68
2023-03-19T14:20:37.575Z,16.68
2023-03-19T14:23:39.026Z,16.75
2023-03-19T14:26:23.196Z,16.83
2023-03-19T14:29:00.469Z,16.85
2023-03-19T14:31:44.442Z,16.97
2023-03-19T14:34:23.608Z,16.81
2023-03-19T14:37:01.470Z,16.69
2023-03-19T14:39:35.019Z,16.54
2023-03-19T14:42:11.558Z,16.33
2023-03-19T14:45:23.736Z,16.54
2023-03-19T14:48:08.893Z,16.58
2023-03-19T14:51:03.888Z,16.52
2023-03-19T14:53:42.419Z,16.43
2023-03-19T14:56:17.807Z,16.38
2023-03-19T14:58:56.996Z,16.25
2023-03-19T15:01:29.697Z,16.06
2023-03-19T15:04:03.784Z,16.00
2023-03-19T15:06:36.093Z,15.89
2023-03-19T15:09:10.495Z,15.82
2023-03-19T15:12:04.518Z,15.78
2023-03-19T15:14:51.793Z,15.80
2023-03-19T15:17:27.149Z,15.83
2023-03-19T15:19:59.323Z,15.47
2023-03-19T15:22:33.162Z,15.89
2023-03-19T15:25:08.996Z,15.87
2023-03-19T15:27:40.217Z,15.96
2023-03-19T15:30:29.264Z,16.13
2023-03-19T15:33:11.958Z,16.21
2023-03-19T15:35:44.238Z,16.26
2023-03-19T15:38:20.190Z,16.27
2023-03-19T15:40:51.772Z,16.15
2023-03-19T15:43:23.590Z,16.28
2023-03-19T15:45:58.289Z,16.34
2023-03-19T15:48:37.947Z,16.44
2023-03-19T15:51:11.964Z,16.26
2023-03-19T15:53:43.074Z,16.40
2023-03-19T15:56:17.777Z,16.35
2023-03-19T15:58:53.299Z,16.21
2023-03-19T16:01:27.221Z,16.06
2023-03-19T16:04:02.400Z,16.03
2023-03-19T16:06:35.574Z,16.02
2023-03-19T16:09:24.784Z,15.48
2023-03-19T16:11:57.202Z,15.95
2023-03-19T16:14:30.468Z,15.74
2023-03-19T16:17:14.705Z,15.70
2023-03-19T16:19:56.175Z,15.93
2023-03-19T16:22:31.245Z,15.88
2023-03-19T16:25:06.948Z,15.88
2023-03-19T16:27:40.288Z,15.87
2023-03-19T16:30:22.555Z,15.82
2023-03-19T16:33:04.567Z,15.73
2023-03-19T16:35:37.964Z,15.71
2023-03-19T16:38:16.540Z,15.67
2023-03-19T16:40:49.191Z,15.59
2023-03-19T16:43:22.511Z,15.56
2023-03-19T16:45:54.763Z,15.48
2023-03-19T16:48:27.955Z,15.40
2023-03-19T16:50:58.783Z,15.37
2023-03-19T16:53:33.363Z,15.32
2023-03-19T16:56:05.448Z,15.25
2023-03-19T16:58:42.624Z,15.22
2023-03-19T17:01:19.575Z,15.20
2023-03-19T17:03:54.107Z,15.18
2023-03-19T17:06:25.546Z,15.17
2023-03-19T17:08:56.100Z,15.12
2023-03-19T17:11:31.138Z,15.12
2023-03-19T17:14:02.502Z,15.08
2023-03-19T17:16:33.262Z,15.07
2023-03-19T17:19:09.334Z,15.06
2023-03-19T17:21:39.881Z,15.02
2023-03-19T17:24:24.313Z,15.01
2023-03-19T17:26:55.737Z,14.98
2023-03-19T17:29:26.415Z,14.94
2023-03-19T17:32:00.331Z,14.93
2023-03-19T17:34:35.987Z,14.89
2023-03-19T17:37:07.226Z,14.83
2023-03-19T17:39:37.728Z,14.79
2023-03-19T17:42:19.776Z,14.74
2023-03-19T17:44:50.347Z,14.71
2023-03-19T17:47:21.904Z,14.66
2023-03-19T17:49:55.420Z,14.63
2023-03-19T17:52:26.217Z,14.59
2023-03-19T17:54:56.788Z,14.57
2023-03-19T17:57:27.337Z,13.93
2023-03-19T17:59:57.866Z,14.46
2023-03-19T18:02:31.665Z,14.47
2023-03-19T18:05:04.823Z,14.44
2023-03-19T18:07:35.381Z,14.43
2023-03-19T18:10:06.153Z,14.41
2023-03-19T18:12:36.718Z,14.43
2023-03-19T18:15:08.400Z,14.45
2023-03-19T18:17:39.248Z,14.47
2023-03-19T18:20:15.807Z,14.47
2023-03-19T18:22:46.232Z,14.49
2023-03-19T18:25:19.115Z,14.49
2023-03-19T18:27:52.056Z,14.49
2023-03-19T18:30:24.974Z,14.48
2023-03-19T18:32:58.990Z,14.48
2023-03-19T18:35:34.440Z,14.47
2023-03-19T18:38:05.035Z,14.46
2023-03-19T18:40:36.289Z,14.42
2023-03-19T18:43:07.327Z,14.40
2023-03-19T18:45:38.074Z,14.40
2023-03-19T18:48:22.116Z,14.44
2023-03-19T18:50:56.335Z,14.33
2023-03-19T18:53:29.035Z,14.40
2023-03-19T18:56:00.805Z,14.40
2023-03-19T18:58:31.633Z,14.37
2023-03-19T19:01:04.596Z,14.37
2023-03-19T19:03:36.988Z,14.33
2023-03-19T19:06:10.600Z,14.33
2023-03-19T19:08:41.577Z,14.18
2023-03-19T19:11:15.000Z,14.32
2023-03-19T19:13:55.742Z,14.26
2023-03-19T19:16:35.826Z,14.26
2023-03-19T19:19:06.585Z,14.25
2023-03-19T19:21:39.722Z,14.23
2023-03-19T19:24:11.115Z,14.20
2023-03-19T19:26:41.732Z,14.20
2023-03-19T19:29:21.332Z,14.17
2023-03-19T19:31:54.094Z,14.16
2023-03-19T19:34:26.720Z,14.13
2023-03-19T19:37:00.527Z,14.13
2023-03-19T19:39:31.383Z,14.11
2023-03-19T19:42:01.999Z,14.08
2023-03-19T19:44:32.740Z,14.04
2023-03-19T19:47:07.471Z,14.03
2023-03-19T19:49:39.780Z,14.03
2023-03-19T19:52:17.377Z,13.97
2023-03-19T19:54:48.632Z,13.95
2023-03-19T19:57:22.882Z,13.94
2023-03-19T19:59:55.464Z,13.88
2023-03-19T20:02:28.564Z,13.92
2023-03-19T20:04:59.576Z,13.89
2023-03-19T20:07:32.737Z,13.91
2023-03-19T20:10:03.823Z,13.91
2023-03-19T20:12:35.978Z,13.89
2023-03-19T20:15:07.082Z,13.88
2023-03-19T20:17:37.754Z,13.87
2023-03-19T20:20:20.061Z,13.85
2023-03-19T20:22:53.574Z,13.84
2023-03-19T20:25:26.453Z,13.81
2023-03-19T20:27:59.589Z,13.79
2023-03-19T20:30:33.570Z,13.76
2023-03-19T20:33:04.731Z,13.55
2023-03-19T20:35:38.440Z,13.66
2023-03-19T20:38:14.260Z,13.65
2023-03-19T20:40:47.765Z,13.63
2023-03-19T20:43:28.282Z,13.64
2023-03-19T20:46:00.173Z,13.62
2023-03-19T20:48:31.064Z,13.57
2023-03-19T20:51:03.132Z,13.54
2023-03-19T20:53:36.370Z,13.51
2023-03-19T20:56:09.652Z,13.49
2023-03-19T20:58:40.136Z,13.32
2023-03-19T21:01:12.009Z,13.44
2023-03-19T21:03:42.519Z,13.43
2023-03-19T21:06:18.654Z,13.41
2023-03-19T21:08:57.230Z,13.28
2023-03-19T21:11:42.466Z,13.34
2023-03-19T21:14:18.435Z,13.28
2023-03-19T21:16:48.972Z,13.23
2023-03-19T21:19:19.766Z,13.21
2023-03-19T21:21:50.902Z,13.19
2023-03-19T21:24:26.110Z,13.17
2023-03-19T21:26:57.016Z,13.16
2023-03-19T21:29:33.227Z,13.13
2023-03-19T21:32:04.599Z,13.07
2023-03-19T21:34:35.000Z,12.90
2023-03-19T21:37:06.236Z,13.00
2023-03-19T21:39:39.297Z,12.97
2023-03-19T21:42:11.018Z,12.97
2023-03-19T21:44:42.534Z,12.96
2023-03-19T21:47:16.429Z,12.93
2023-03-19T21:49:48.499Z,12.95
2023-03-19T21:52:22.061Z,12.97
2023-03-19T21:54:55.996Z,12.97
2023-03-19T21:57:27.592Z,12.86
2023-03-19T21:59:58.551Z,13.01
2023-03-19T22:02:43.607Z,13.02
2023-03-19T22:05:27.247Z,13.03
2023-03-19T22:07:58.620Z,13.03
2023-03-19T22:10:33.022Z,13.03
2023-03-19T22:13:03.964Z,13.01
2023-03-19T22:15:37.586Z,13.00
2023-03-19T22:18:15.798Z,12.85
2023-03-19T22:20:47.165Z,12.95
2023-03-19T22:23:18.268Z,12.89
2023-03-19T22:25:54.042Z,12.92
2023-03-19T22:28:32.503Z,12.91
2023-03-19T22:31:05.310Z,12.90
2023-03-19T22:33:36.441Z,12.90
2023-03-19T22:36:07.451Z,12.90
2023-03-19T22:38:38.088Z,12.90
2023-03-19T22:41:18.377Z,12.90
2023-03-19T22:43:49.272Z,12.86
2023-03-19T22:46:26.124Z,12.80
2023-03-19T22:48:57.961Z,12.85
2023-03-19T22:51:30.711Z,12.87
2023-03-19T22:54:01.495Z,12.90
2023-03-19T22:56:34.610Z,12.89
2023-03-19T22:59:05.551Z,12.82
2023-03-19T23:01:41.500Z,12.77
2023-03-19T23:04:21.335Z,12.73
2023-03-19T23:06:53.009Z,12.65
2023-03-19T23:09:26.120Z,12.57
2023-03-19T23:12:00.153Z,12.48
2023-03-19T23:14:32.108Z,12.38
2023-03-19T23:17:06.753Z,12.36
2023-03-19T23:19:39.680Z,12.31
2023-03-19T23:22:16.858Z,12.24
2023-03-19T23:24:47.618Z,12.06
2023-03-19T23:27:26.376Z,12.14
2023-03-19T23:29:57.383Z,12.06
2023-03-19T23:32:29.017Z,11.93
2023-03-19T23:35:01.869Z,11.93
2023-03-19T23:37:34.769Z,11.90
2023-03-19T23:40:05.484Z,11.88
2023-03-19T23:42:39.757Z,11.86
2023-03-19T23:45:24.761Z,11.91
2023-03-19T23:47:55.397Z,11.94
2023-03-19T23:50:26.161Z,12.00
2023-03-19T23:52:56.606Z,12.01
2023-03-19T23:55:36.723Z,12.03
2023-03-19T23:58:11.103Z,11.82
